Terminal Aerodrome Forecast
Issued by NWS

Home | Current Version | Previous Version | Text Only | Print | Product List | Glossary Off
Versions: 1 2 3 4 5 6 7 8 9 10 11 12 13 14 15 16

582
FTUS43 KUNR 200520
TAFGCC
TAF
KGCC 200520Z 2006/2106 21015G25KT P6SM BKN250
     FM201900 22020G30KT P6SM FEW250
     FM210300 30025G40KT P6SM SCT050 BKN100=

USA.gov is the U.S. government's official web portal to all federal, state and local government web resources and services.